Time;durP1;ratioP1;P1;durP2;ratioP2;P2;SDS_P1;SDS_P2;PMS_P1;PMS_P2;Temp;Humidity;BMP_temperature;BMP_pressure;BME280_temperature;BME280_humidity;BME280_pressure;Samples;Min_cycle;Max_cycle;Signal;HPM_P1;HPM_P2
2023/08/23 00:00:50;;;;;;;;;3.00;3.00;;;;;26.47;49.54;101851.53;1984488;28;2741949;-73
2023/08/23 00:02:01;;;;;;;;;3.67;3.00;;;;;26.46;49.76;101863.31;1995045;28;2744583;-75
2023/08/23 00:03:11;;;;;;;;;3.67;2.00;;;;;26.45;49.28;101848.13;1951320;28;2750312;-77
2023/08/23 00:04:22;;;;;;;;;4.33;3.00;;;;;26.45;49.99;101855.34;1988156;28;2749275;-77
2023/08/23 00:05:33;;;;;;;;;2.00;2.00;;;;;26.43;49.73;101852.78;1983932;28;2748251;-76
2023/08/23 00:06:44;;;;;;;;;2.00;2.00;;;;;26.42;49.85;101851.06;1985517;28;2754489;-76
2023/08/23 00:07:55;;;;;;;;;3.00;3.00;;;;;26.41;49.20;101849.34;1996808;28;2735760;-76
2023/08/23 00:09:06;;;;;;;;;2.00;2.00;;;;;26.40;49.38;101851.19;1972146;28;2730853;-76
2023/08/23 00:10:17;;;;;;;;;3.00;3.00;;;;;26.37;49.52;101842.50;1995019;28;2737774;-76
2023/08/23 00:11:27;;;;;;;;;2.00;2.00;;;;;26.36;49.94;101844.34;1950285;28;2740303;-76
2023/08/23 00:12:38;;;;;;;;;2.33;2.33;;;;;26.35;49.76;101845.31;1988192;28;2731552;-75
2023/08/23 00:13:49;;;;;;;;;3.00;2.00;;;;;26.35;49.50;101844.47;1995761;28;2750750;-76
2023/08/23 00:15:03;;;;;;;;;3.50;2.00;;;;;26.34;49.88;101840.06;1974713;28;2728388;-76
2023/08/23 00:16:16;;;;;;;;;3.67;2.00;;;;;26.33;49.54;101841.03;1975919;28;2746102;-76
2023/08/23 00:17:27;;;;;;;;;4.67;2.67;;;;;26.32;49.84;101839.34;1949219;28;2732594;-76
2023/08/23 00:18:38;;;;;;;;;2.33;2.33;;;;;26.31;49.73;101838.47;1989384;28;2746130;-76
2023/08/23 00:19:49;;;;;;;;;6.00;3.00;;;;;26.29;50.01;101837.75;1984355;28;2737865;-75
2023/08/23 00:21:02;;;;;;;;;1.00;1.00;;;;;26.27;49.71;101835.16;1997871;28;2731537;-76
2023/08/23 00:22:12;;;;;;;;;3.00;2.00;;;;;26.26;50.09;101829.94;1950108;28;2742959;-76
2023/08/23 00:23:23;;;;;;;;;2.00;2.00;;;;;26.26;49.58;101829.94;1996460;28;2738807;-76
2023/08/23 00:24:37;;;;;;;;;2.83;2.83;;;;;26.24;49.74;101832.75;1976007;28;2736732;-76
2023/08/23 00:25:47;;;;;;;;;3.00;3.00;;;;;26.24;50.18;101834.59;1949286;28;2735724;-76
2023/08/23 00:26:58;;;;;;;;;4.00;2.00;;;;;26.23;50.16;101835.56;1987942;28;2738905;-76
2023/08/23 00:28:10;;;;;;;;;2.75;2.75;;;;;26.20;49.29;101828.59;1996073;28;2729445;-76
2023/08/23 00:29:23;;;;;;;;;2.00;2.00;;;;;26.20;49.59;101827.75;1996772;28;2722210;-76
2023/08/23 00:30:36;;;;;;;;;2.33;2.17;;;;;26.19;50.15;101824.19;1973787;28;2731515;-74
2023/08/23 00:31:49;;;;;;;;;2.17;2.17;;;;;26.17;49.78;101829.72;1974844;28;2746107;-73
2023/08/23 00:33:01;;;;;;;;;2.00;2.00;;;;;26.16;49.99;101829.84;1950230;28;2739849;-73
2023/08/23 00:34:12;;;;;;;;;2.67;2.67;;;;;26.14;49.49;101829.13;1972902;28;2740880;-74
2023/08/23 00:35:23;;;;;;;;;3.00;3.00;;;;;26.12;49.73;101828.38;1987781;28;2735752;-74
2023/08/23 00:36:34;;;;;;;;;2.67;2.67;;;;;26.11;49.80;101823.97;1984091;28;2749780;-72
2023/08/23 00:37:44;;;;;;;;;3.00;3.00;;;;;26.09;49.98;101824.09;1976064;28;2745132;-73
2023/08/23 00:38:55;;;;;;;;;6.00;3.00;;;;;26.09;50.23;101823.25;1983363;28;2750401;-72
2023/08/23 00:40:09;;;;;;;;;2.50;1.25;;;;;26.06;49.81;101816.28;1996269;28;2732636;-77
2023/08/23 00:41:20;;;;;;;;;3.00;3.00;;;;;26.05;50.20;101810.03;1949887;28;2743053;-77
2023/08/23 00:42:31;;;;;;;;;3.00;3.00;;;;;26.05;49.83;101810.03;1986768;28;2741921;-76
2023/08/23 00:43:42;;;;;;;;;2.00;2.00;;;;;26.05;50.02;101810.03;1978804;28;2735665;-77
2023/08/23 00:44:52;;;;;;;;;3.00;3.00;;;;;26.03;50.39;101806.59;1982899;28;2754508;-76
2023/08/23 00:46:05;;;;;;;;;3.67;3.00;;;;;26.02;50.18;101793.28;1991979;28;2746118;-76
2023/08/23 00:47:18;;;;;;;;;2.17;2.00;;;;;25.99;49.54;101794.38;1996873;28;2733596;-75
2023/08/23 00:48:32;;;;;;;;;2.33;2.33;;;;;25.99;50.43;101799.78;1974765;28;2731544;-75
2023/08/23 00:49:46;;;;;;;;;2.17;2.17;;;;;25.99;50.02;101798.91;1979929;28;2738807;-75
2023/08/23 00:50:58;;;;;;;;;3.00;3.00;;;;;25.96;49.68;101792.81;1950545;28;2749313;-75
2023/08/23 00:52:11;;;;;;;;;2.00;2.00;;;;;25.96;49.69;101791.94;1997667;28;2738829;-75
2023/08/23 00:53:24;;;;;;;;;2.17;1.17;;;;;25.93;49.48;101792.19;1976598;28;2724214;-75
2023/08/23 00:54:35;;;;;;;;;4.00;2.33;;;;;25.90;49.64;101785.25;1948401;28;2737822;-75
2023/08/23 00:55:46;;;;;;;;;2.67;2.00;;;;;25.88;50.06;101789.06;1984408;28;2746169;-76
2023/08/23 00:57:03;;;;;;;;;2.40;2.00;;;;;25.87;49.60;101790.03;1996446;28;2748211;-76
2023/08/23 00:58:18;;;;;;;;;2.00;2.00;;;;;25.85;49.66;101790.16;1997326;28;2733946;-77
2023/08/23 00:59:32;;;;;;;;;5.00;3.00;;;;;25.83;50.34;101790.25;1950671;28;2744036;-78
2023/08/23 01:00:47;;;;;;;;;3.00;3.00;;;;;25.82;50.14;101788.56;1996990;28;2732551;-78
2023/08/23 01:01:58;;;;;;;;;4.00;3.00;;;;;25.81;49.98;101785.97;1948649;28;2747234;-77
2023/08/23 01:03:11;;;;;;;;;3.00;2.50;;;;;25.80;49.93;101785.16;1997616;28;2722154;-78
2023/08/23 01:04:22;;;;;;;;;4.33;2.67;;;;;25.78;49.85;101779.00;1950670;28;2742356;-77
2023/08/23 01:05:45;;;;;;;;;4.00;2.00;;;;;25.77;49.95;101782.72;1987077;28;2745063;-74
2023/08/23 01:07:15;;;;;;;;;2.33;2.00;;;;;25.77;49.90;101785.41;1995765;28;2739870;-75
2023/08/23 01:08:38;;;;;;;;;3.00;3.00;;;;;25.77;49.80;101789.91;1948227;28;2748790;-75
2023/08/23 01:09:57;;;;;;;;;2.33;2.33;;;;;25.75;49.97;101787.38;1966043;28;2751335;-75
2023/08/23 01:11:24;;;;;;;;;3.00;3.00;;;;;25.74;49.97;101791.03;1996422;28;2738847;-75
2023/08/23 01:12:48;;;;;;;;;4.33;3.33;;;;;25.71;50.05;101794.78;1950287;28;2754513;-75
2023/08/23 01:14:11;;;;;;;;;2.50;2.50;;;;;25.69;50.36;101794.06;1996208;28;2738840;-75
2023/08/23 01:15:24;;;;;;;;;2.00;2.00;;;;;25.68;50.04;101800.41;1949117;28;2739849;-75
2023/08/23 01:16:36;;;;;;;;;3.33;3.00;;;;;25.67;50.44;101789.78;1970843;28;2746099;-75
2023/08/23 01:17:48;;;;;;;;;2.00;2.00;;;;;25.67;50.26;101800.56;1972038;28;2741967;-75
2023/08/23 01:19:09;;;;;;;;;1.83;1.83;;;;;25.65;50.18;101794.44;1996480;28;2742283;-75
2023/08/23 01:20:22;;;;;;;;;2.67;2.00;;;;;25.62;49.95;101791.03;1974973;28;2744071;-75
2023/08/23 01:21:37;;;;;;;;;3.00;2.00;;;;;25.61;50.06;101786.63;1975903;28;2732577;-75
2023/08/23 01:22:54;;;;;;;;;5.00;3.00;;;;;25.59;50.55;101783.19;1951036;28;2737789;-79
2023/08/23 01:24:08;;;;;;;;;3.67;3.67;;;;;25.59;50.52;101783.19;1978311;28;2744036;-79
2023/08/23 01:25:19;;;;;;;;;4.00;3.00;;;;;25.57;50.64;101777.09;1977528;28;2753454;-79
2023/08/23 01:26:30;;;;;;;;;3.33;3.00;;;;;25.55;50.22;101779.06;1972440;28;2734701;-75
2023/08/23 01:27:41;;;;;;;;;2.00;1.67;;;;;25.55;50.73;101780.88;1995710;28;2746173;-75
2023/08/23 01:28:51;;;;;;;;;3.00;2.67;;;;;25.52;50.48;101781.97;1956244;28;2741932;-75
2023/08/23 01:30:02;;;;;;;;;3.00;3.00;;;;;25.49;50.08;101783.09;1977956;28;2746152;-75
2023/08/23 01:31:15;;;;;;;;;2.00;2.00;;;;;25.48;50.53;101785.91;1976855;28;2739893;-75
2023/08/23 01:32:47;;;;;;;;;3.00;3.00;;;;;25.46;50.65;101782.50;1997258;28;2734626;-75
2023/08/23 01:34:26;;;;;;;;;2.33;2.33;;;;;25.44;50.86;101790.66;1974234;28;2738923;-75
2023/08/23 01:35:53;;;;;;;;;2.00;2.00;;;;;25.39;51.16;101788.34;1950091;28;2747172;-80
2023/08/23 01:37:09;;;;;;;;;2.83;2.83;;;;;25.37;50.34;101790.31;1996486;28;2725267;-79
2023/08/23 01:38:23;;;;;;;;;2.00;2.00;;;;;25.36;50.83;101791.28;1973875;28;2730483;-80
2023/08/23 01:39:34;;;;;;;;;5.00;3.00;;;;;25.35;51.07;101788.72;1948815;28;2742010;-79
2023/08/23 01:40:45;;;;;;;;;3.00;3.00;;;;;25.35;50.72;101794.09;1970986;28;2744054;-79
2023/08/23 01:41:56;;;;;;;;;2.33;2.33;;;;;25.35;50.86;101791.41;1974538;28;2750314;-79
2023/08/23 01:43:09;;;;;;;;;1.80;1.80;;;;;25.34;50.38;101793.25;1988611;28;2743090;-80
2023/08/23 01:44:19;;;;;;;;;3.00;2.67;;;;;25.31;50.27;101793.47;1970355;28;2746193;-79
2023/08/23 01:45:30;;;;;;;;;2.33;2.00;;;;;25.30;51.32;101783.72;1986887;28;2741972;-79
2023/08/23 01:46:42;;;;;;;;;2.50;2.50;;;;;25.29;50.85;101788.25;1995849;28;2743329;-75
2023/08/23 01:47:52;;;;;;;;;2.67;2.33;;;;;25.29;50.80;101790.06;1970546;28;3453390;-75
2023/08/23 01:49:04;;;;;;;;;2.00;2.00;;;;;25.29;50.77;101792.75;1995026;28;2746099;-75
2023/08/23 01:50:17;;;;;;;;;3.17;3.00;;;;;25.26;51.48;101782.25;1996112;28;2741961;-76
2023/08/23 01:51:30;;;;;;;;;2.83;2.50;;;;;25.25;51.31;101794.00;1975605;28;2731551;-75
2023/08/23 01:52:44;;;;;;;;;2.83;2.83;;;;;25.22;50.56;101792.41;1974006;28;2737774;-75
2023/08/23 01:53:54;;;;;;;;;3.00;3.00;;;;;25.20;50.82;101785.44;1947429;28;2754845;-73
2023/08/23 01:55:05;;;;;;;;;3.00;2.00;;;;;25.17;50.43;101778.44;1980354;28;2747237;-73
2023/08/23 01:56:16;;;;;;;;;3.00;3.00;;;;;25.15;50.82;101780.41;1972762;28;2735746;-74
2023/08/23 01:57:27;;;;;;;;;2.00;2.00;;;;;25.15;50.87;101783.09;1977930;28;2751401;-76
2023/08/23 01:58:39;;;;;;;;;2.00;2.00;;;;;25.13;50.53;101785.94;1995569;28;2744020;-77
2023/08/23 01:59:52;;;;;;;;;2.83;2.83;;;;;25.12;51.11;101781.50;1995800;28;2741177;-77
2023/08/23 02:01:05;;;;;;;;;2.33;2.33;;;;;25.11;50.75;101777.13;1973477;28;2735763;-76
2023/08/23 02:02:18;;;;;;;;;2.17;2.17;;;;;25.12;51.36;101780.66;1972759;28;2728392;-76
2023/08/23 02:03:31;;;;;;;;;4.00;2.33;;;;;25.10;50.95;101778.09;1973131;28;2737793;-76
2023/08/23 02:04:42;;;;;;;;;3.67;3.00;;;;;25.10;51.27;101780.78;1950347;28;2740926;-76
2023/08/23 02:05:56;;;;;;;;;2.00;2.00;;;;;25.10;51.50;101778.09;1996357;28;2724221;-76
2023/08/23 02:07:06;;;;;;;;;2.00;2.00;;;;;25.10;50.71;101778.09;1971684;28;2751318;-76
2023/08/23 02:08:17;;;;;;;;;4.67;4.00;;;;;25.10;50.99;101772.72;1988143;28;2752444;-75
2023/08/23 02:09:31;;;;;;;;;2.00;2.00;;;;;25.10;51.28;101767.34;1981560;28;2751457;-77
2023/08/23 02:10:44;;;;;;;;;2.17;1.67;;;;;25.11;51.25;101771.75;1988717;28;2726659;-77
2023/08/23 02:11:57;;;;;;;;;2.33;2.00;;;;;25.11;51.03;101769.06;1972863;28;2748217;-76
2023/08/23 02:13:07;;;;;;;;;3.00;3.00;;;;;25.11;50.85;101769.06;1947746;28;2749365;-76
2023/08/23 02:14:18;;;;;;;;;3.67;2.00;;;;;25.12;50.99;101772.59;1984579;28;3463823;-76
2023/08/23 02:15:30;;;;;;;;;3.25;2.00;;;;;25.10;50.89;101767.34;1995634;28;2744020;-80
2023/08/23 02:16:41;;;;;;;;;2.33;2.33;;;;;25.08;50.66;101766.59;1972076;28;2748222;-75
2023/08/23 02:17:52;;;;;;;;;3.00;1.67;;;;;25.08;51.08;101769.28;1995392;28;2733599;-73
2023/08/23 02:19:05;;;;;;;;;2.17;2.17;;;;;25.09;50.90;101771.00;1996753;28;2725285;-73
2023/08/23 02:20:16;;;;;;;;;1.33;1.33;;;;;25.08;51.12;101761.22;1949375;28;2738856;-75
2023/08/23 02:21:27;;;;;;;;;2.33;2.33;;;;;25.09;50.70;101765.63;1996315;28;2730478;-74
2023/08/23 02:22:40;;;;;;;;;2.67;2.67;;;;;25.09;51.00;101768.31;1972476;28;2740980;-75
2023/08/23 02:23:50;;;;;;;;;1.67;1.67;;;;;25.07;50.83;101764.88;1949852;28;2744064;-76
2023/08/23 02:25:01;;;;;;;;;0.00;0.00;;;;;25.05;50.81;101769.53;1996276;28;2731524;-74
2023/08/23 02:26:12;;;;;;;;;3.00;3.00;;;;;25.04;50.88;101768.66;1971994;28;2750289;-75
2023/08/23 02:27:23;;;;;;;;;5.00;2.00;;;;;25.03;51.09;101775.03;1971147;28;2738288;-75
2023/08/23 02:28:34;;;;;;;;;2.00;2.00;;;;;25.01;50.77;101768.94;1995287;28;2735696;-75
2023/08/23 02:29:47;;;;;;;;;2.00;2.00;;;;;25.03;51.25;101766.97;1996214;28;2732549;-76
2023/08/23 02:31:02;;;;;;;;;2.00;2.00;;;;;25.02;51.41;101759.00;1947348;28;2747320;-75
2023/08/23 02:32:16;;;;;;;;;2.17;2.17;;;;;25.01;51.34;101760.88;1996528;28;2732573;-75
2023/08/23 02:33:29;;;;;;;;;2.33;2.00;;;;;25.02;51.45;101764.38;1974221;28;2744028;-75
2023/08/23 02:34:42;;;;;;;;;2.00;2.00;;;;;25.00;51.48;101758.28;1974346;28;2738836;-75
2023/08/23 02:35:52;;;;;;;;;3.33;3.33;;;;;25.00;51.38;101760.97;1949419;28;2737797;-75
2023/08/23 02:37:03;;;;;;;;;2.67;2.67;;;;;25.00;51.28;101758.28;1995685;28;2744024;-75
2023/08/23 02:38:14;;;;;;;;;4.00;2.67;;;;;24.99;50.80;101756.56;1971035;28;2736732;-75
2023/08/23 02:39:27;;;;;;;;;2.00;1.50;;;;;24.97;50.98;101753.09;1995424;28;2732558;-72
2023/08/23 02:40:42;;;;;;;;;3.83;2.00;;;;;24.96;51.08;101749.59;1975252;28;2740915;-77
2023/08/23 02:41:52;;;;;;;;;2.67;2.00;;;;;24.94;51.40;101757.75;1949067;28;2751353;-77
2023/08/23 02:43:03;;;;;;;;;6.00;3.00;;;;;24.94;51.22;101763.13;1986672;28;3459636;-77
2023/08/23 02:44:14;;;;;;;;;3.67;3.00;;;;;24.94;51.14;101757.75;1977479;28;2746188;-77
2023/08/23 02:45:25;;;;;;;;;3.67;3.67;;;;;24.93;51.81;101764.13;1984018;28;2746103;-77
2023/08/23 02:46:36;;;;;;;;;4.33;2.00;;;;;24.94;51.56;101765.81;1995745;28;2727350;-77
2023/08/23 02:47:49;;;;;;;;;2.00;2.00;;;;;24.93;51.20;101766.81;1974374;28;2746106;-77
2023/08/23 02:49:02;;;;;;;;;2.50;2.00;;;;;24.92;51.19;101761.53;1973710;28;2744020;-77
2023/08/23 02:50:15;;;;;;;;;2.33;2.33;;;;;24.91;51.33;101766.09;1974625;28;2741926;-78
2023/08/23 02:51:26;;;;;;;;;2.33;2.33;;;;;24.92;50.97;101767.78;1948180;28;2746110;-76
2023/08/23 02:52:37;;;;;;;;;2.00;2.00;;;;;24.91;51.27;101763.41;1983944;28;2750432;-76
2023/08/23 02:53:47;;;;;;;;;2.00;2.00;;;;;24.90;51.59;101761.66;1986170;28;2748234;-76
2023/08/23 02:54:58;;;;;;;;;5.00;2.67;;;;;24.90;51.54;101760.81;1985946;28;2743006;-76
2023/08/23 02:56:09;;;;;;;;;2.00;2.00;;;;;24.89;51.63;101759.13;1985955;28;2751362;-74
2023/08/23 02:57:20;;;;;;;;;4.33;3.00;;;;;24.87;51.76;101756.53;1997530;28;2730529;-74
2023/08/23 02:58:33;;;;;;;;;3.17;3.00;;;;;24.85;51.51;101747.72;1975660;28;2738839;-74
2023/08/23 02:59:47;;;;;;;;;2.83;1.50;;;;;24.84;51.37;101746.03;1976235;28;2748194;-74
2023/08/23 03:01:00;;;;;;;;;4.83;2.33;;;;;24.83;51.61;101745.19;1974644;28;2738879;-74
2023/08/23 03:02:11;;;;;;;;;4.00;2.00;;;;;24.82;51.54;101743.44;1949742;28;2754487;-74
2023/08/23 03:03:22;;;;;;;;;3.67;3.67;;;;;24.82;51.18;101750.66;1987044;28;2752405;-74
2023/08/23 03:04:33;;;;;;;;;4.00;3.00;;;;;24.81;51.75;101744.44;1983428;28;2739957;-76
2023/08/23 03:06:04;;;;;;;;;2.00;2.00;;;;;24.79;51.79;101751.75;1985493;28;2748193;-75
2023/08/23 03:07:17;;;;;;;;;3.00;2.67;;;;;24.78;51.53;101759.94;1997648;28;2737553;-75
2023/08/23 03:08:30;;;;;;;;;4.00;2.33;;;;;24.77;51.29;101756.41;1975406;28;2739853;-75
2023/08/23 03:09:43;;;;;;;;;3.33;2.33;;;;;24.76;51.94;101759.22;1974713;28;2749728;-81
2023/08/23 03:11:06;;;;;;;;;4.00;2.50;;;;;24.75;51.39;101760.19;1976308;28;2733592;-79
2023/08/23 03:12:20;;;;;;;;;2.00;2.00;;;;;24.74;51.48;101762.03;1980193;28;2746630;-79
2023/08/23 03:13:31;;;;;;;;;2.33;2.33;;;;;24.71;51.89;101757.75;1949264;28;2745070;-79
2023/08/23 03:14:44;;;;;;;;;3.67;2.33;;;;;24.70;52.00;101757.84;1998048;28;2734728;-78
2023/08/23 03:15:54;;;;;;;;;3.33;2.67;;;;;24.69;51.65;101758.84;1949462;28;2746107;-78
2023/08/23 03:17:06;;;;;;;;;4.00;3.00;;;;;24.69;51.92;101753.47;1997046;28;2735686;-78
2023/08/23 03:18:17;;;;;;;;;3.00;2.00;;;;;24.69;52.18;101759.69;1971694;28;2734725;-78
2023/08/23 03:19:28;;;;;;;;;2.00;1.00;;;;;24.70;51.69;101755.16;1996669;28;2737754;-74
2023/08/23 03:20:43;;;;;;;;;4.33;2.00;;;;;24.67;51.39;101760.81;1997154;28;2739849;-74
2023/08/23 03:21:54;;;;;;;;;2.00;2.00;;;;;24.65;51.70;101760.91;1950653;28;2754969;-74
2023/08/23 03:23:05;;;;;;;;;3.00;3.00;;;;;24.64;52.03;101761.03;1988655;28;2738804;-74
2023/08/23 03:24:15;;;;;;;;;4.00;4.00;;;;;24.63;51.64;101757.47;1983572;28;2754522;-74
2023/08/23 03:25:27;;;;;;;;;4.00;3.00;;;;;24.64;51.80;101763.72;1989288;28;2734652;-74
2023/08/23 03:26:40;;;;;;;;;4.33;3.00;;;;;24.64;52.03;101761.91;1966787;28;2741940;-75
2023/08/23 03:27:54;;;;;;;;;3.17;2.00;;;;;24.65;52.23;101760.91;1973778;28;2737099;-74
2023/08/23 03:29:04;;;;;;;;;3.00;3.00;;;;;24.65;52.00;101758.22;1948612;28;2750360;-74
2023/08/23 03:30:15;;;;;;;;;4.00;2.33;;;;;24.64;51.71;101755.66;1986370;28;2741921;-74
2023/08/23 03:31:26;;;;;;;;;3.33;2.00;;;;;24.64;52.20;101756.50;1984184;28;2748186;-75
2023/08/23 03:32:37;;;;;;;;;2.67;2.67;;;;;24.64;52.17;101756.50;1996257;28;2740879;-75
2023/08/23 03:33:50;;;;;;;;;2.33;2.33;;;;;24.64;51.97;101753.81;1975338;28;2729445;-76
2023/08/23 03:35:00;;;;;;;;;3.00;3.00;;;;;24.64;52.32;101756.50;1950119;28;2748225;-78
2023/08/23 03:36:11;;;;;;;;;3.00;3.00;;;;;24.64;52.31;101753.81;1989446;28;3465893;-78
2023/08/23 03:37:22;;;;;;;;;5.00;3.00;;;;;24.64;52.20;101755.66;1980833;28;2742102;-79
2023/08/23 03:38:33;;;;;;;;;4.00;3.00;;;;;24.63;51.82;101751.25;1985985;28;2749240;-78
2023/08/23 03:39:45;;;;;;;;;3.50;3.00;;;;;24.61;52.15;101749.53;1995755;28;2746103;-76
2023/08/23 03:40:56;;;;;;;;;2.00;2.00;;;;;24.61;51.71;101746.00;1972125;28;2751418;-76
2023/08/23 03:42:06;;;;;;;;;3.67;2.67;;;;;24.59;52.36;101740.75;1972859;28;2737774;-76
2023/08/23 03:43:17;;;;;;;;;4.00;3.00;;;;;24.59;51.96;101742.56;1988774;28;2754560;-76
2023/08/23 03:44:28;;;;;;;;;2.00;2.00;;;;;24.57;52.41;101737.31;1980857;28;2752344;-76
2023/08/23 03:45:49;;;;;;;;;3.75;2.25;;;;;24.57;52.59;101734.63;1996238;28;2734657;-76
2023/08/23 03:47:03;;;;;;;;;4.50;3.00;;;;;24.55;52.56;101736.56;1997048;28;2733615;-76
2023/08/23 03:48:13;;;;;;;;;2.00;2.00;;;;;24.55;52.45;101733.03;1950625;28;2746112;-77
2023/08/23 03:49:27;;;;;;;;;4.33;4.33;;;;;24.54;52.58;101734.00;1997825;28;2741932;-77
2023/08/23 03:50:37;;;;;;;;;2.00;2.00;;;;;24.52;52.28;101733.28;1972610;28;2752356;-75
2023/08/23 03:51:48;;;;;;;;;3.33;3.33;;;;;24.50;52.58;101739.63;1988175;28;2746098;-76
2023/08/23 03:53:00;;;;;;;;;3.75;3.50;;;;;24.47;51.99;101739.84;1996520;28;2738828;-76
2023/08/23 03:54:13;;;;;;;;;1.67;1.33;;;;;24.47;52.59;101750.59;1997568;28;2739880;-76
2023/08/23 03:55:23;;;;;;;;;4.00;2.00;;;;;24.47;52.24;101741.69;1949376;28;2734685;-76
2023/08/23 03:56:34;;;;;;;;;6.00;3.00;;;;;24.46;52.76;101737.28;1995661;28;2740898;-76
2023/08/23 03:57:50;;;;;;;;;3.00;3.00;;;;;24.46;52.62;101743.53;1968351;28;2724225;-76
2023/08/23 03:59:04;;;;;;;;;2.67;2.67;;;;;24.46;53.00;101740.84;1974188;28;2735695;-75
2023/08/23 04:00:17;;;;;;;;;2.67;2.33;;;;;24.44;52.43;101734.72;1974972;28;2739849;-74
2023/08/23 04:01:30;;;;;;;;;3.67;3.67;;;;;24.43;52.37;101741.06;1975912;28;2735690;-74
2023/08/23 04:02:42;;;;;;;;;5.33;3.33;;;;;24.43;52.91;101741.06;1949536;28;2754456;-74
2023/08/23 04:03:55;;;;;;;;;3.17;3.17;;;;;24.42;53.09;101744.72;1995331;28;2737788;-74
2023/08/23 04:05:11;;;;;;;;;5.67;3.00;;;;;24.42;52.75;101742.03;1947430;28;2752489;-71
2023/08/23 04:06:24;;;;;;;;;2.33;2.33;;;;;24.41;52.52;101740.34;1990921;28;2734664;-76
2023/08/23 04:07:39;;;;;;;;;3.00;3.00;;;;;24.39;52.60;101748.53;1974038;28;2727402;-77
2023/08/23 04:08:49;;;;;;;;;3.67;3.67;;;;;24.39;52.67;101747.66;1949960;28;2744012;-76
2023/08/23 04:10:00;;;;;;;;;3.00;2.00;;;;;24.39;52.69;101747.66;1996255;28;2744024;-76
2023/08/23 04:11:11;;;;;;;;;2.33;2.33;;;;;24.38;52.93;101748.63;1972261;28;2752912;-76
2023/08/23 04:12:22;;;;;;;;;3.67;3.00;;;;;24.38;52.97;101746.78;1988326;28;2754529;-75
2023/08/23 04:13:32;;;;;;;;;3.00;3.00;;;;;24.37;52.98;101750.44;1984434;28;2739945;-75
2023/08/23 04:14:44;;;;;;;;;2.00;1.00;;;;;24.38;53.43;101745.94;1996671;28;2737783;-75
2023/08/23 04:15:55;;;;;;;;;3.67;2.33;;;;;24.35;53.42;101755.06;1970587;28;2746092;-75
2023/08/23 04:17:06;;;;;;;;;3.00;3.00;;;;;24.34;53.33;101757.91;1996083;28;2732567;-75
2023/08/23 04:18:16;;;;;;;;;4.00;4.00;;;;;24.32;53.15;101746.41;1948989;28;2754443;-75
2023/08/23 04:19:27;;;;;;;;;2.00;2.00;;;;;24.32;53.14;101752.66;1995155;28;2731516;-74
2023/08/23 04:20:41;;;;;;;;;4.33;3.00;;;;;24.31;53.12;101753.63;1996446;28;2734681;-76
2023/08/23 04:21:54;;;;;;;;;3.00;2.67;;;;;24.30;53.27;101756.44;1974380;28;2735747;-76
2023/08/23 04:23:07;;;;;;;;;2.00;2.00;;;;;24.29;53.34;101752.88;1973401;28;2742319;-75
2023/08/23 04:24:18;;;;;;;;;2.33;2.33;;;;;24.30;53.20;101759.94;1948650;28;2752440;-75
2023/08/23 04:25:28;;;;;;;;;5.33;4.00;;;;;24.30;53.49;101764.47;1987264;28;2752352;-75
2023/08/23 04:26:39;;;;;;;;;3.67;3.67;;;;;24.27;53.43;101762.88;1984233;28;2742021;-75
2023/08/23 04:27:50;;;;;;;;;4.67;3.00;;;;;24.26;53.35;101759.34;1984518;28;2737797;-75
2023/08/23 04:29:01;;;;;;;;;2.33;2.00;;;;;24.25;52.63;101759.41;1984536;28;2749418;-75
2023/08/23 04:30:12;;;;;;;;;4.00;2.67;;;;;24.24;53.43;101755.88;1995845;28;2739878;-75
2023/08/23 04:31:23;;;;;;;;;3.00;3.00;;;;;24.24;53.10;101755.88;1949206;28;2741980;-74
2023/08/23 04:32:34;;;;;;;;;2.00;2.00;;;;;24.24;53.10;101765.75;1989166;28;2734637;-74
2023/08/23 04:33:47;;;;;;;;;4.17;2.83;;;;;24.23;52.95;101764.03;1973373;28;2741991;-74
2023/08/23 04:35:00;;;;;;;;;5.50;3.00;;;;;24.21;53.37;101758.78;1974440;28;2727349;-75
2023/08/23 04:36:10;;;;;;;;;3.33;2.67;;;;;24.22;53.07;101756.97;1947943;28;2745110;-75
2023/08/23 04:37:21;;;;;;;;;4.00;4.00;;;;;24.21;53.15;101755.25;1986972;28;2745069;-75
2023/08/23 04:38:32;;;;;;;;;2.67;2.67;;;;;24.21;53.04;101749.88;1983913;28;2747165;-74
2023/08/23 04:39:43;;;;;;;;;5.33;4.00;;;;;24.20;53.03;101751.69;1977127;28;2752390;-74
2023/08/23 04:41:01;;;;;;;;;3.00;3.00;;;;;24.20;53.57;101757.06;1973653;28;2738810;-74
2023/08/23 04:42:14;;;;;;;;;2.83;2.83;;;;;24.21;53.54;101755.25;1996229;28;2742981;-74
2023/08/23 04:43:24;;;;;;;;;2.33;2.33;;;;;24.21;53.96;101753.41;1949337;28;2745054;-74
2023/08/23 04:44:35;;;;;;;;;3.67;2.67;;;;;24.22;53.83;101757.84;1988670;28;2750363;-75
2023/08/23 04:45:46;;;;;;;;;2.00;1.00;;;;;24.20;53.17;101754.38;1996956;28;2731528;-75
2023/08/23 04:47:00;;;;;;;;;2.00;2.00;;;;;24.20;52.83;101756.25;1949114;28;2744014;-75
2023/08/23 04:48:11;;;;;;;;;1.67;1.33;;;;;24.15;53.34;101743.16;1972647;28;2748274;-75
2023/08/23 04:49:22;;;;;;;;;3.33;2.33;;;;;24.11;52.89;101750.56;1972195;28;2745138;-75
2023/08/23 04:50:33;;;;;;;;;3.33;2.67;;;;;24.08;53.18;101756.16;1996148;28;2737782;-75
2023/08/23 04:51:43;;;;;;;;;2.33;2.33;;;;;24.05;53.44;101756.41;1948797;28;2738820;-75
2023/08/23 04:52:55;;;;;;;;;2.00;2.00;;;;;24.05;54.14;101753.75;1996363;28;2737220;-74
2023/08/23 04:54:08;;;;;;;;;3.00;3.00;;;;;24.05;53.51;101751.88;1996330;28;2735675;-75
2023/08/23 04:55:18;;;;;;;;;3.00;2.00;;;;;24.06;53.59;101758.13;1947765;28;2746181;-75
2023/08/23 04:56:29;;;;;;;;;3.00;1.00;;;;;24.05;53.93;101754.56;1996095;28;2733598;-75
2023/08/23 04:57:42;;;;;;;;;4.00;3.00;;;;;24.07;53.46;101761.66;1974201;28;2736733;-75
2023/08/23 04:58:55;;;;;;;;;4.50;3.00;;;;;24.09;54.13;101757.03;1972645;28;2743015;-75
2023/08/23 05:00:09;;;;;;;;;3.00;3.00;;;;;24.09;53.27;101765.09;1975629;28;2738836;-75
2023/08/23 05:01:20;;;;;;;;;3.00;3.00;;;;;24.09;53.81;101748.97;1949233;28;2741972;-75
2023/08/23 05:02:31;;;;;;;;;3.33;2.33;;;;;24.10;53.54;101753.38;1986874;28;2743066;-75
2023/08/23 05:03:42;;;;;;;;;2.00;2.00;;;;;24.09;53.64;101757.03;1995724;28;2735773;-75
2023/08/23 05:04:55;;;;;;;;;2.33;2.00;;;;;24.09;53.79;101755.22;1974064;28;2746134;-75
2023/08/23 05:06:08;;;;;;;;;4.00;2.00;;;;;24.09;54.01;101754.34;1973153;28;2745112;-75
2023/08/23 05:07:21;;;;;;;;;3.00;3.00;;;;;24.09;53.98;101755.22;1973553;28;2733643;-74
2023/08/23 05:08:34;;;;;;;;;3.00;3.00;;;;;24.09;53.85;101757.91;1946439;28;2754472;-75
2023/08/23 05:09:44;;;;;;;;;2.00;2.00;;;;;24.08;53.69;101758.00;1969287;28;2747272;-75
2023/08/23 05:10:56;;;;;;;;;4.00;3.00;;;;;24.09;53.66;101767.78;1987603;28;3451966;-75
2023/08/23 05:12:06;;;;;;;;;4.00;3.00;;;;;24.07;53.96;101765.22;1978690;28;2743023;-73
2023/08/23 05:13:19;;;;;;;;;3.00;3.00;;;;;24.07;53.79;101764.34;1995374;28;2732569;-75
2023/08/23 05:14:33;;;;;;;;;3.00;3.00;;;;;24.06;53.75;101763.47;1996916;28;2736840;-75
2023/08/23 05:15:43;;;;;;;;;2.00;2.00;;;;;24.07;53.70;101770.59;1953280;28;2753417;-74
2023/08/23 05:16:54;;;;;;;;;2.67;2.67;;;;;24.04;53.98;101763.63;1985924;28;2736057;-74
2023/08/23 05:18:05;;;;;;;;;2.33;2.33;;;;;24.05;53.98;101767.16;1995706;28;2746109;-74
2023/08/23 05:19:15;;;;;;;;;5.00;3.00;;;;;24.04;53.82;101760.94;1950275;28;2744036;-74
2023/08/23 05:20:27;;;;;;;;;3.00;3.00;;;;;24.03;53.55;101764.56;1995543;28;2747149;-74
2023/08/23 05:21:37;;;;;;;;;3.00;2.67;;;;;24.03;53.77;101759.19;1949670;28;2737811;-74
2023/08/23 05:22:48;;;;;;;;;1.67;1.67;;;;;24.02;54.11;101762.88;1995674;28;2740400;-74
2023/08/23 05:24:01;;;;;;;;;2.50;2.50;;;;;24.01;53.88;101761.16;1974320;28;2736732;-74
2023/08/23 05:25:14;;;;;;;;;3.17;2.67;;;;;24.01;53.84;101757.59;1974239;28;2744036;-75
2023/08/23 05:26:28;;;;;;;;;3.00;3.00;;;;;23.99;53.86;101755.03;1973852;28;2734657;-74
2023/08/23 05:27:38;;;;;;;;;3.00;3.00;;;;;24.00;54.37;101756.75;1947503;28;2747296;-75
2023/08/23 05:28:49;;;;;;;;;3.00;3.00;;;;;24.01;54.30;101760.28;1988184;28;2733599;-75
2023/08/23 05:30:02;;;;;;;;;2.33;2.33;;;;;24.02;54.04;101756.66;1996332;28;2743361;-75